Time;durP1;ratioP1;P1;durP2;ratioP2;P2;SDS_P1;SDS_P2;PMS_P1;PMS_P2;Temp;Humidity;BMP_temperature;BMP_pressure;BME280_temperature;BME280_humidity;BME280_pressure;Samples;Min_cycle;Max_cycle;Signal;HPM_P1;HPM_P2
2021/04/09 00:00:45;;;;;;;21.40;10.25;;;;;;;3.13;39.24;101318.72;4974004;28;20038;-66
2021/04/09 00:03:11;;;;;;;15.05;10.27;;;;;;;3.66;38.40;101304.81;4975515;28;20038;-66
2021/04/09 00:05:37;;;;;;;16.77;9.90;;;;;;;3.21;38.71;101303.22;4959544;28;20027;-66
2021/04/09 00:08:02;;;;;;;16.70;10.30;;;;;;;3.54;38.07;101313.47;4976708;28;20543;-66
2021/04/09 00:10:29;;;;;;;13.25;8.45;;;;;;;3.40;38.42;101297.13;4961128;28;20042;-66
2021/04/09 00:12:56;;;;;;;17.23;10.02;;;;;;;3.16;38.93;101306.66;4962079;28;20053;-66
2021/04/09 00:15:22;;;;;;;14.57;8.77;;;;;;;2.96;39.58;101295.50;4961277;28;20039;-66
2021/04/09 00:17:49;;;;;;;13.23;10.00;;;;;;;3.79;37.67;101300.44;4959900;28;20473;-66
2021/04/09 00:20:18;;;;;;;17.88;9.70;;;;;;;3.45;38.36;101295.41;4961492;28;20092;-66
2021/04/09 00:22:44;;;;;;;16.70;9.93;;;;;;;3.53;38.09;101297.97;4959749;28;20461;-67
2021/04/09 00:25:10;;;;;;;14.30;10.55;;;;;;;3.05;39.35;101280.00;4975560;28;20042;-65
2021/04/09 00:27:36;;;;;;;15.15;9.90;;;;;;;3.49;38.28;101283.31;4985517;28;20038;-66
2021/04/09 00:30:05;;;;;;;16.08;10.10;;;;;;;3.24;38.85;101287.69;4961420;28;20340;-66
2021/04/09 00:32:30;;;;;;;22.77;9.88;;;;;;;3.48;38.55;101290.22;4961482;28;20130;-65
2021/04/09 00:34:55;;;;;;;15.40;9.07;;;;;;;3.43;38.45;101291.13;4962999;28;20032;-66
2021/04/09 00:37:21;;;;;;;15.65;8.85;;;;;;;3.40;38.51;101279.06;4962416;28;20512;-65
2021/04/09 00:39:47;;;;;;;15.55;9.25;;;;;;;3.14;39.12;101274.81;4962331;28;20061;-65
2021/04/09 00:42:20;;;;;;;18.77;9.63;;;;;;;2.81;40.28;101285.19;4958553;28;20035;-66
2021/04/09 00:44:46;;;;;;;16.15;10.10;;;;;;;3.02;40.21;101272.25;4960344;28;20042;-66
2021/04/09 00:47:13;;;;;;;15.43;9.15;;;;;;;3.06;39.71;101270.53;4958706;28;20045;-66
2021/04/09 00:49:38;;;;;;;18.23;9.75;;;;;;;2.95;39.82;101265.38;4963874;28;20031;-66
2021/04/09 00:52:06;;;;;;;14.88;10.02;;;;;;;3.47;39.31;101261.78;4959061;28;20057;-66
2021/04/09 00:54:32;;;;;;;13.40;9.23;;;;;;;2.43;40.79;101268.00;4961413;28;20699;-66
2021/04/09 00:57:01;;;;;;;16.52;9.50;;;;;;;2.85;40.36;101249.06;4958574;28;20070;-66
2021/04/09 00:59:27;;;;;;;12.15;7.60;;;;;;;2.89;40.21;101252.47;4961069;28;20066;-67
2021/04/09 01:01:53;;;;;;;17.20;9.55;;;;;;;3.22;39.91;101251.53;4972166;28;20067;-66
2021/04/09 01:04:18;;;;;;;14.23;7.80;;;;;;;2.97;40.45;101238.69;4963096;28;20114;-67
2021/04/09 01:06:44;;;;;;;16.35;9.85;;;;;;;2.52;41.47;101234.47;4961152;28;20031;-66
2021/04/09 01:09:09;;;;;;;13.05;8.43;;;;;;;3.00;40.66;101224.91;4960254;28;20489;-66
2021/04/09 01:11:35;;;;;;;15.75;9.00;;;;;;;2.63;41.14;101230.16;4962052;28;20050;-66
2021/04/09 01:14:00;;;;;;;16.02;9.85;;;;;;;2.32;41.97;101227.59;4960201;28;20042;-65
2021/04/09 01:16:45;;;;;;;17.00;8.32;;;;;;;3.32;40.20;101229.16;4960575;28;20030;-65
2021/04/09 01:19:48;;;;;;;12.10;8.30;;;;;;;2.92;40.65;101224.06;4959821;28;20031;-66
2021/04/09 01:22:14;;;;;;;31.83;8.98;;;;;;;2.84;40.93;101212.91;4959222;28;20043;-67
2021/04/09 01:25:12;;;;;;;16.98;8.68;;;;;;;2.64;41.66;101216.38;4961814;28;20042;-66
2021/04/09 01:27:53;;;;;;;16.15;8.85;;;;;;;2.91;40.97;101224.94;4960651;28;20140;-65
2021/04/09 01:30:37;;;;;;;9.82;7.60;;;;;;;2.71;41.31;101212.94;4960929;28;20045;-66
2021/04/09 01:33:06;;;;;;;16.08;8.43;;;;;;;3.14;40.87;101207.66;4961087;28;20039;-66
2021/04/09 01:35:33;;;;;;;16.60;8.98;;;;;;;2.90;41.51;101199.97;4959743;28;20038;-66
2021/04/09 01:38:06;;;;;;;12.73;7.18;;;;;;;2.51;41.65;101191.44;4984796;28;20127;-66
2021/04/09 01:40:35;;;;;;;10.45;7.30;;;;;;;2.78;41.78;101187.97;4958613;28;20476;-66
2021/04/09 01:43:03;;;;;;;15.88;9.05;;;;;;;2.87;41.67;101192.25;4976127;28;20101;-66
2021/04/09 01:45:31;;;;;;;16.67;9.48;;;;;;;2.73;41.92;101185.41;4959335;28;20047;-66
2021/04/09 01:47:57;;;;;;;15.88;8.52;;;;;;;2.98;41.04;101186.19;4976312;28;20036;-64
2021/04/09 01:50:25;;;;;;;15.48;8.73;;;;;;;2.67;41.82;101174.25;4962654;28;20031;-66
2021/04/09 01:52:52;;;;;;;12.15;8.02;;;;;;;2.53;41.91;101176.81;4958155;28;20034;-66
2021/04/09 01:55:19;;;;;;;15.63;7.93;;;;;;;3.43;40.47;101173.09;4959837;28;20504;-66
2021/04/09 01:57:46;;;;;;;13.30;8.13;;;;;;;3.10;41.52;101179.25;4958752;28;20038;-65
2021/04/09 02:00:24;;;;;;;14.65;7.68;;;;;;;2.76;42.12;101163.88;4976060;28;20050;-66
2021/04/09 02:02:51;;;;;;;15.07;8.55;;;;;;;3.35;40.90;101167.97;4960224;28;20030;-66
2021/04/09 02:05:20;;;;;;;15.55;8.63;;;;;;;3.13;41.25;101169.75;4977171;28;20504;-65
2021/04/09 02:07:46;;;;;;;13.88;8.40;;;;;;;3.15;41.21;101159.44;4966866;28;20089;-67
2021/04/09 02:10:15;;;;;;;13.10;7.50;;;;;;;3.03;41.36;101159.50;4965326;28;20038;-65
2021/04/09 02:12:45;;;;;;;14.25;7.63;;;;;;;2.62;42.29;101151.00;4978941;28;20043;-65
2021/04/09 02:15:16;;;;;;;16.25;7.75;;;;;;;2.92;41.74;101150.06;4964873;28;20041;-65
2021/04/09 02:17:42;;;;;;;17.50;7.60;;;;;;;2.75;42.36;101131.19;4963824;28;20045;-66
2021/04/09 02:20:13;;;;;;;15.02;8.07;;;;;;;3.02;41.98;101140.53;4964320;28;20413;-67
2021/04/09 02:22:46;;;;;;;18.38;8.05;;;;;;;2.69;42.78;101137.22;4990671;28;20101;-67
2021/04/09 02:25:14;;;;;;;11.35;7.22;;;;;;;2.93;42.35;101130.25;4965911;28;20054;-68
2021/04/09 02:27:40;;;;;;;15.73;7.93;;;;;;;2.95;41.65;101119.03;4979992;28;20042;-66
2021/04/09 02:30:07;;;;;;;14.57;6.97;;;;;;;2.84;42.40;101130.28;4979342;28;20077;-65
2021/04/09 02:32:33;;;;;;;15.23;7.97;;;;;;;2.67;43.16;101123.47;4960832;28;20601;-67
2021/04/09 02:34:58;;;;;;;18.75;8.82;;;;;;;3.14;41.75;101125.00;4963721;28;20039;-66
2021/04/09 02:37:25;;;;;;;12.70;6.82;;;;;;;3.24;41.53;101124.94;4964849;28;20582;-66
2021/04/09 02:39:56;;;;;;;13.65;8.18;;;;;;;2.74;42.79;101124.31;4964656;28;20089;-67
2021/04/09 02:42:22;;;;;;;9.45;4.88;;;;;;;2.85;42.44;101119.13;4962145;28;20496;-66
2021/04/09 02:44:48;;;;;;;14.57;6.65;;;;;;;2.98;42.47;101113.03;4964166;28;20034;-66
2021/04/09 02:47:23;;;;;;;14.27;7.95;;;;;;;2.52;43.37;101102.88;4963037;28;20030;-66
2021/04/09 02:49:55;;;;;;;13.95;6.60;;;;;;;2.60;43.13;101103.72;4978491;28;20046;-67
2021/04/09 02:52:22;;;;;;;;;;;;;;;3.11;42.22;101109.53;4976945;28;20112;-66
2021/04/09 02:54:52;;;;;;;12.30;7.75;;;;;;;2.93;42.49;101099.25;4977752;28;19925;-67
2021/04/09 02:57:23;;;;;;;11.65;6.97;;;;;;;2.95;42.49;101092.38;4979223;28;20105;-66
2021/04/09 02:59:51;;;;;;;12.02;8.52;;;;;;;2.86;42.81;101087.25;4962118;28;20047;-66
2021/04/09 03:02:17;;;;;;;10.35;6.82;;;;;;;2.72;42.99;101098.50;4961991;28;20034;-66
2021/04/09 03:04:44;;;;;;;11.65;7.65;;;;;;;2.65;43.20;101093.38;4964120;28;20085;-66
2021/04/09 03:07:12;;;;;;;14.40;8.02;;;;;;;2.99;42.78;101078.59;4961877;28;20035;-67
2021/04/09 03:09:38;;;;;;;17.23;8.65;;;;;;;2.91;43.09;101082.91;4961128;28;20035;-66
2021/04/09 03:12:20;;;;;;;15.23;7.88;;;;;;;2.72;43.00;101071.84;4977964;28;20080;-65
2021/04/09 03:14:50;;;;;;;15.93;8.48;;;;;;;2.23;43.94;101072.84;4962677;28;20776;-66
2021/04/09 03:17:26;;;;;;;17.23;8.77;;;;;;;2.54;43.79;101083.94;4978367;28;20134;-66
2021/04/09 03:19:52;;;;;;;13.82;7.40;;;;;;;2.85;43.54;101081.25;4962584;28;20066;-67
2021/04/09 03:22:18;;;;;;;16.25;9.23;;;;;;;2.93;43.23;101078.59;4961089;28;20047;-66
2021/04/09 03:24:43;;;;;;;16.88;8.45;;;;;;;2.26;44.16;101083.13;4963905;28;20046;-66
2021/04/09 03:27:09;;;;;;;11.98;7.75;;;;;;;3.09;43.07;101084.53;4977800;28;23432;-66
2021/04/09 03:29:35;;;;;;;15.85;8.63;;;;;;;3.31;42.53;101064.66;4963164;28;20074;-66
2021/04/09 03:32:02;;;;;;;15.80;8.43;;;;;;;3.30;42.35;101062.94;4962153;28;20082;-67
2021/04/09 03:34:28;;;;;;;14.52;8.20;;;;;;;2.60;43.96;101070.16;4965412;28;20460;-65
2021/04/09 03:36:53;;;;;;;17.00;8.27;;;;;;;2.51;43.35;101054.69;4977871;28;20121;-65
2021/04/09 03:39:19;;;;;;;15.50;8.68;;;;;;;2.80;43.80;101070.09;4978927;28;20019;-65
2021/04/09 03:41:44;;;;;;;12.88;8.40;;;;;;;2.98;43.35;101057.06;4967180;28;20042;-66
2021/04/09 03:44:10;;;;;;;14.32;8.02;;;;;;;2.94;42.84;101057.09;4965525;28;20098;-65
2021/04/09 03:46:35;;;;;;;12.00;7.35;;;;;;;3.18;42.90;101056.97;4966341;28;20540;-66
2021/04/09 03:49:01;;;;;;;12.70;7.05;;;;;;;3.31;42.34;101044.81;4962608;28;20073;-66
2021/04/09 03:51:26;;;;;;;14.93;8.75;;;;;;;2.83;43.83;101045.97;4965558;28;20477;-66
2021/04/09 03:53:52;;;;;;;14.23;7.88;;;;;;;3.38;42.98;101043.06;4964553;28;20042;-67
2021/04/09 03:56:17;;;;;;;13.77;7.40;;;;;;;2.19;44.99;101047.91;4966481;28;20042;-66
2021/04/09 03:58:43;;;;;;;15.35;8.27;;;;;;;2.17;45.61;101038.47;4962986;28;20074;-66
2021/04/09 04:01:08;;;;;;;17.42;8.57;;;;;;;2.72;44.34;101038.28;4978237;28;20038;-66
2021/04/09 04:03:34;;;;;;;15.32;8.57;;;;;;;2.83;44.01;101043.41;4964581;28;20058;-67
2021/04/09 04:05:59;;;;;;;13.88;8.35;;;;;;;2.68;44.31;101042.59;4963645;28;20039;-65
2021/04/09 04:08:25;;;;;;;16.65;9.15;;;;;;;2.50;45.04;101047.81;4979377;28;20398;-65
2021/04/09 04:10:50;;;;;;;17.27;8.80;;;;;;;2.66;44.46;101044.31;4962436;28;20086;-66
2021/04/09 04:13:16;;;;;;;14.65;7.38;;;;;;;3.21;43.44;101047.47;4965148;28;20954;-66
2021/04/09 04:15:41;;;;;;;17.40;8.60;;;;;;;2.58;44.87;101040.94;4961432;28;20039;-66
2021/04/09 04:18:07;;;;;;;10.57;7.05;;;;;;;3.02;44.00;101039.81;4978879;28;20183;-65
2021/04/09 04:20:33;;;;;;;15.45;9.10;;;;;;;3.06;44.31;101038.94;4959280;28;20027;-66
2021/04/09 04:22:58;;;;;;;19.52;8.48;;;;;;;3.23;43.85;101030.25;4981222;28;20039;-66
2021/04/09 04:25:24;;;;;;;15.85;9.07;;;;;;;3.03;44.16;101033.81;4978548;28;20126;-66
2021/04/09 04:27:49;;;;;;;12.88;8.13;;;;;;;3.37;43.47;101031.88;4978002;28;20088;-66
2021/04/09 04:30:15;;;;;;;18.27;8.02;;;;;;;3.05;44.38;101032.06;4961308;28;20079;-66
2021/04/09 04:32:41;;;;;;;18.92;10.70;;;;;;;2.45;45.99;101026.34;4963188;28;20469;-67
2021/04/09 04:35:08;;;;;;;14.27;8.48;;;;;;;2.71;45.32;101021.06;4963619;28;20404;-66
2021/04/09 04:37:34;;;;;;;14.90;7.95;;;;;;;2.75;45.01;101023.63;4958230;28;20394;-66
2021/04/09 04:39:59;;;;;;;17.70;8.43;;;;;;;2.67;45.42;101025.41;4976030;28;20127;-67
2021/04/09 04:42:25;;;;;;;17.80;8.48;;;;;;;2.57;45.51;101034.03;4963831;28;20043;-66
2021/04/09 04:44:50;;;;;;;16.42;9.32;;;;;;;3.48;43.95;101026.63;4977335;28;20031;-65
2021/04/09 04:47:17;;;;;;;18.55;9.10;;;;;;;3.19;44.58;101031.97;4975164;28;20034;-66
2021/04/09 04:49:43;;;;;;;24.20;9.18;;;;;;;2.81;45.66;101029.63;4961042;28;20035;-67
2021/04/09 04:52:08;;;;;;;17.05;8.23;;;;;;;3.07;45.21;101040.69;4961214;28;20038;-65
2021/04/09 04:54:34;;;;;;;16.67;8.70;;;;;;;3.12;44.98;101031.16;4948263;28;20577;-66
2021/04/09 04:56:59;;;;;;;19.00;9.48;;;;;;;2.62;45.84;101032.28;4959367;28;20034;-66
2021/04/09 04:59:24;;;;;;;15.05;9.07;;;;;;;2.71;46.11;101037.44;4978019;28;20110;-67
2021/04/09 05:01:50;;;;;;;21.27;10.10;;;;;;;3.41;44.76;101030.13;4961602;28;20038;-66
2021/04/09 05:04:16;;;;;;;18.90;9.13;;;;;;;3.02;45.59;101024.31;4978734;28;20050;-65
2021/04/09 05:06:41;;;;;;;17.80;9.25;;;;;;;3.07;45.33;101029.47;4962263;28;20046;-66
2021/04/09 05:09:06;;;;;;;20.58;9.25;;;;;;;3.36;44.88;101021.56;4962708;28;20074;-65
2021/04/09 05:11:33;;;;;;;23.40;9.10;;;;;;;2.97;45.75;101028.66;4977156;28;20114;-64
2021/04/09 05:13:58;;;;;;;14.27;8.73;;;;;;;3.50;44.65;101022.31;4960245;28;20504;-66
2021/04/09 05:16:24;;;;;;;13.95;8.80;;;;;;;3.07;45.66;101030.34;4964092;28;20045;-64
2021/04/09 05:18:49;;;;;;;16.80;9.27;;;;;;;3.12;45.48;101022.56;4961790;28;20141;-66
2021/04/09 05:21:15;;;;;;;17.80;9.00;;;;;;;3.07;46.16;101022.59;4963010;28;20034;-65
2021/04/09 05:23:40;;;;;;;12.27;8.00;;;;;;;2.86;46.32;101015.81;4976852;28;20497;-65
2021/04/09 05:26:06;;;;;;;19.70;10.27;;;;;;;3.05;45.81;101011.41;4962683;28;20039;-67
2021/04/09 05:28:32;;;;;;;21.10;8.82;;;;;;;3.47;44.88;101014.59;4963411;28;20041;-66
2021/04/09 05:30:57;;;;;;;15.20;8.55;;;;;;;3.32;45.85;101014.72;4959745;28;20114;-68
2021/04/09 05:33:24;;;;;;;16.58;9.02;;;;;;;3.28;45.96;101011.25;4977563;28;20034;-67
2021/04/09 05:35:50;;;;;;;15.05;9.80;;;;;;;3.32;46.07;101023.31;4961648;28;20041;-66
2021/04/09 05:38:15;;;;;;;14.02;8.00;;;;;;;3.22;46.40;101024.19;4965200;28;20042;-65
2021/04/09 05:40:41;;;;;;;17.98;9.95;;;;;;;2.58;47.96;101025.44;4964504;28;20035;-65
2021/04/09 05:43:07;;;;;;;18.67;9.32;;;;;;;2.85;47.55;101034.78;4965921;28;20118;-66
2021/04/09 05:45:33;;;;;;;16.77;8.85;;;;;;;3.01;47.15;101030.38;4967612;28;20524;-65
2021/04/09 05:48:07;;;;;;;19.02;9.70;;;;;;;3.27;46.68;101031.91;4964726;28;20027;-65
2021/04/09 05:50:34;;;;;;;15.10;8.48;;;;;;;2.96;47.19;101029.56;4976642;28;20045;-65
2021/04/09 05:53:00;;;;;;;25.55;9.82;;;;;;;3.47;46.36;101029.22;4966555;28;20487;-66
2021/04/09 05:55:26;;;;;;;21.48;9.15;;;;;;;3.53;46.09;101029.19;4966193;28;20053;-66
2021/04/09 05:57:52;;;;;;;18.05;9.00;;;;;;;3.27;47.03;101021.59;4964692;28;20035;-65
2021/04/09 06:00:19;;;;;;;18.20;9.00;;;;;;;2.69;47.89;101031.41;4966936;28;20044;-66
2021/04/09 06:02:44;;;;;;;21.85;10.25;;;;;;;3.06;47.36;101032.94;4985211;28;20158;-67
2021/04/09 06:05:10;;;;;;;14.25;9.75;;;;;;;3.27;47.47;101026.75;4969376;28;20170;-65
2021/04/09 06:07:36;;;;;;;22.20;9.77;;;;;;;5.78;41.04;101027.19;4965327;28;20050;-65
2021/04/09 06:10:03;;;;;;;16.27;9.43;;;;;;;7.13;38.28;101016.69;4965234;28;20031;-66
2021/04/09 06:12:29;;;;;;;17.73;8.93;;;;;;;7.17;38.11;101009.66;4964286;28;20181;-67
2021/04/09 06:14:54;;;;;;;12.13;8.13;;;;;;;6.75;38.96;101015.78;4979636;28;20035;-66
2021/04/09 06:17:20;;;;;;;14.70;8.90;;;;;;;8.30;36.61;101013.72;4965191;28;20049;-66
2021/04/09 06:19:47;;;;;;;17.58;9.55;;;;;;;7.81;36.74;101002.06;4963948;28;20043;-66
2021/04/09 06:22:14;;;;;;;16.17;8.77;;;;;;;7.20;38.90;101020.00;4980336;28;20034;-66
2021/04/09 06:24:40;;;;;;;14.73;8.77;;;;;;;6.65;39.85;101016.91;4965076;28;20049;-66
2021/04/09 06:27:06;;;;;;;14.85;9.38;;;;;;;5.19;42.69;100998.78;4965148;28;20042;-66
2021/04/09 06:29:32;;;;;;;18.92;9.82;;;;;;;5.38;42.81;101012.31;4964110;28;20034;-67
2021/04/09 06:31:57;;;;;;;17.02;8.60;;;;;;;4.38;45.22;101005.91;4966378;28;20050;-66
2021/04/09 06:34:23;;;;;;;17.83;10.30;;;;;;;4.97;44.22;101011.22;4965642;28;20658;-67
2021/04/09 06:36:48;;;;;;;19.55;10.90;;;;;;;4.77;44.58;101004.53;4965260;28;20074;-67
2021/04/09 06:39:14;;;;;;;13.15;8.93;;;;;;;5.12;43.98;101010.97;4978613;28;20424;-66
2021/04/09 06:41:40;;;;;;;16.13;10.35;;;;;;;4.15;46.22;101009.63;4964763;28;20118;-67
2021/04/09 06:44:06;;;;;;;18.55;8.45;;;;;;;4.33;45.87;101021.47;4976404;28;20676;-67
2021/04/09 06:46:35;;;;;;;16.92;8.73;;;;;;;4.66;45.42;101014.19;4963412;28;20035;-66
2021/04/09 06:49:00;;;;;;;22.52;10.55;;;;;;;5.05;44.98;101017.97;4963563;28;20046;-66
2021/04/09 06:51:27;;;;;;;18.05;9.05;;;;;;;4.23;46.70;101022.47;4965547;28;20034;-66
2021/04/09 06:53:54;;;;;;;24.75;9.48;;;;;;;5.02;45.56;101010.25;4981024;28;20039;-66
2021/04/09 06:56:22;;;;;;;16.45;9.15;;;;;;;4.96;45.63;101022.44;4963544;28;20026;-66
2021/04/09 06:58:49;;;;;;;15.75;9.07;;;;;;;4.45;46.66;101019.63;4977872;28;20049;-66
2021/04/09 07:01:16;;;;;;;18.02;9.05;;;;;;;4.82;45.82;101028.63;4978007;28;20112;-67
2021/04/09 07:03:43;;;;;;;14.77;8.73;;;;;;;4.72;45.64;101021.00;4962321;28;20676;-66
2021/04/09 07:06:08;;;;;;;16.80;8.70;;;;;;;5.33;44.92;101024.50;4963093;28;20045;-66
2021/04/09 07:08:43;;;;;;;20.58;9.63;;;;;;;5.02;45.95;101014.59;4965431;28;20034;-67
2021/04/09 07:11:10;;;;;;;16.27;8.77;;;;;;;5.49;44.79;101020.78;4979468;28;20027;-67
2021/04/09 07:13:52;;;;;;;16.73;8.32;;;;;;;4.73;46.59;101010.63;4967023;28;20038;-67
2021/04/09 07:16:18;;;;;;;17.63;9.00;;;;;;;4.88;46.96;101006.13;4963983;28;20135;-67
2021/04/09 07:18:55;;;;;;;21.25;8.18;;;;;;;5.16;46.05;101016.97;4975119;28;20045;-67
2021/04/09 07:21:28;;;;;;;18.40;8.15;;;;;;;5.14;46.09;101009.22;4964368;28;20031;-68
2021/04/09 07:24:12;;;;;;;12.38;6.85;;;;;;;4.87;46.88;101004.41;4992324;28;20039;-68
2021/04/09 07:26:43;;;;;;;15.20;7.88;;;;;;;4.69;47.34;101015.88;4977504;28;20133;-68
2021/04/09 07:29:32;;;;;;;15.00;7.47;;;;;;;5.09;46.32;101013.63;4980884;28;20110;-67
2021/04/09 07:32:29;;;;;;;15.18;7.53;;;;;;;4.79;47.84;101023.50;4953941;28;20046;-68
2021/04/09 07:35:21;;;;;;;12.68;7.35;;;;;;;5.24;46.68;101015.97;4961784;28;20031;-67
2021/04/09 07:37:51;;;;;;;12.18;6.80;;;;;;;5.13;46.95;101017.88;4959239;28;20047;-65
2021/04/09 07:40:23;;;;;;;13.57;8.18;;;;;;;5.88;45.48;101021.84;4977073;28;20042;-66
2021/04/09 07:42:49;;;;;;;;;;;;;;;5.77;45.58;101020.28;4962174;28;20141;-65
2021/04/09 07:45:16;;;;;;;11.57;5.78;;;;;;;5.94;45.60;101026.03;4961834;28;20154;-66
2021/04/09 07:48:00;;;;;;;12.70;6.88;;;;;;;5.33;46.34;101014.13;4961715;28;20039;-66
2021/04/09 07:50:49;;;;;;;15.43;6.78;;;;;;;4.99;47.89;101019.81;4964179;28;20026;-65
2021/04/09 07:53:17;;;;;;;13.85;6.15;;;;;;;5.24;47.37;101021.16;4963489;28;21040;-66
2021/04/09 07:55:43;;;;;;;13.88;7.40;;;;;;;5.47;46.84;101014.75;4964167;28;20053;-68
2021/04/09 07:58:13;;;;;;;15.88;7.57;;;;;;;5.97;45.74;101018.22;4978703;28;20035;-67
2021/04/09 08:00:38;;;;;;;15.43;6.10;;;;;;;5.41;47.02;101017.44;4959888;28;20039;-66
2021/04/09 08:03:04;;;;;;;18.30;6.88;;;;;;;5.84;46.42;101024.50;4959149;28;20373;-65
2021/04/09 08:05:29;;;;;;;19.98;7.90;;;;;;;5.76;46.11;101034.16;4978931;28;20042;-66
2021/04/09 08:07:55;;;;;;;14.10;7.63;;;;;;;5.37;46.97;101028.72;4974200;28;20094;-66
2021/04/09 08:10:32;;;;;;;17.15;7.50;;;;;;;5.60;47.22;101024.03;4962451;28;21185;-67
2021/04/09 08:13:00;;;;;;;14.00;6.82;;;;;;;5.35;48.14;101027.94;4975002;28;20046;-65
2021/04/09 08:15:32;;;;;;;16.77;7.65;;;;;;;5.33;48.12;101032.28;4963091;28;20035;-65
2021/04/09 08:18:11;;;;;;;13.55;6.72;;;;;;;5.47;47.76;101032.91;4975643;28;20043;-64
2021/04/09 08:20:40;;;;;;;12.77;6.65;;;;;;;4.89;48.96;101033.78;4976360;28;20062;-66
2021/04/09 08:23:09;;;;;;;15.95;7.80;;;;;;;5.23;48.18;101045.38;4975746;28;20128;-66
2021/04/09 08:25:35;;;;;;;12.98;6.10;;;;;;;5.50;47.92;101032.84;4961540;28;20038;-67
2021/04/09 08:28:04;;;;;;;14.18;5.57;;;;;;;5.34;48.50;101036.56;4959297;28;20129;-65
2021/04/09 08:30:30;;;;;;;12.07;5.40;;;;;;;5.47;48.47;101040.69;4974004;28;20077;-65
2021/04/09 08:32:58;;;;;;;12.38;5.35;;;;;;;5.43;49.26;101033.81;4973572;28;20039;-66
2021/04/09 08:35:24;;;;;;;12.57;6.82;;;;;;;4.79;50.71;101036.47;4976344;28;20053;-65
2021/04/09 08:37:50;;;;;;;18.88;6.82;;;;;;;5.37;50.01;101033.91;4959719;28;20035;-67
2021/04/09 08:40:17;;;;;;;17.08;7.18;;;;;;;4.52;53.01;101029.91;4991247;28;20062;-66
2021/04/09 08:42:43;;;;;;;17.63;6.20;;;;;;;5.02;52.23;101035.31;4960839;28;20030;-66
2021/04/09 08:45:11;;;;;;;11.57;6.25;;;;;;;5.52;51.77;101040.59;4976795;28;20035;-65
2021/04/09 08:47:37;;;;;;;15.82;7.43;;;;;;;5.41;52.09;101028.69;4958747;28;20038;-68
2021/04/09 08:50:07;;;;;;;12.65;6.75;;;;;;;5.76;51.53;101036.75;4976094;28;20038;-65
2021/04/09 08:52:39;;;;;;;14.90;6.00;;;;;;;5.96;50.72;101042.44;4960916;28;20604;-66
2021/04/09 08:55:05;;;;;;;14.68;6.15;;;;;;;4.93;52.84;101043.22;4961496;28;20039;-67
2021/04/09 08:57:33;;;;;;;14.00;6.45;;;;;;;4.72;53.25;101042.59;4961677;28;20055;-66
2021/04/09 09:00:18;;;;;;;19.38;5.70;;;;;;;5.67;51.37;101051.56;4985634;28;20988;-65
2021/04/09 09:02:48;;;;;;;12.32;6.53;;;;;;;5.53;51.76;101053.53;4962103;28;20494;-65
2021/04/09 09:05:27;;;;;;;10.65;5.68;;;;;;;5.25;51.11;101041.00;4960440;28;20034;-64
2021/04/09 09:08:03;;;;;;;13.73;5.65;;;;;;;5.58;51.14;101046.53;4956951;28;20066;-66
2021/04/09 09:10:29;;;;;;;21.75;5.25;;;;;;;5.34;51.53;101047.78;4959348;28;20098;-65
2021/04/09 09:13:12;;;;;;;13.43;6.18;;;;;;;5.90;50.11;101052.06;4961015;28;20099;-65
2021/04/09 09:15:46;;;;;;;13.48;5.82;;;;;;;5.42;51.81;101050.28;4964321;28;20047;-66
2021/04/09 09:18:27;;;;;;;12.90;6.30;;;;;;;4.95;52.00;101055.25;4964106;28;20039;-65
2021/04/09 09:21:20;;;;;;;14.97;6.70;;;;;;;5.92;49.98;101050.31;4979198;28;20034;-65
2021/04/09 09:23:50;;;;;;;10.70;5.30;;;;;;;6.04;49.07;101050.94;4961906;28;20694;-66
2021/04/09 09:26:31;;;;;;;10.25;5.20;;;;;;;6.31;48.11;101050.47;4978640;28;20375;-66
2021/04/09 09:29:23;;;;;;;6.90;4.43;;;;;;;6.34;48.55;101056.47;4964185;28;20124;-66
2021/04/09 09:31:48;;;;;;;12.60;4.85;;;;;;;6.86;47.08;101052.81;4966039;28;20047;-65
2021/04/09 09:34:17;;;;;;;8.27;4.50;;;;;;;6.31;48.30;101053.94;4978697;28;20122;-66
2021/04/09 09:37:07;;;;;;;10.30;5.05;;;;;;;6.02;48.48;101052.72;4961820;28;20501;-65
2021/04/09 09:40:03;;;;;;;11.25;4.43;;;;;;;5.72;49.84;101053.25;4961373;28;20940;-64
2021/04/09 09:42:28;;;;;;;13.50;4.57;;;;;;;4.99;51.60;101049.16;4979195;28;20062;-66
2021/04/09 09:45:33;;;;;;;9.00;4.25;;;;;;;5.69;50.03;101048.13;4958553;28;20038;-65
2021/04/09 09:48:16;;;;;;;9.10;3.67;;;;;;;6.09;49.11;101043.91;4963722;28;20035;-65
2021/04/09 09:50:41;;;;;;;12.23;3.78;;;;;;;6.08;49.34;101050.00;4959829;28;20061;-64
2021/04/09 09:53:07;;;;;;;8.88;4.32;;;;;;;5.88;49.36;101049.47;4964334;28;20080;-65
2021/04/09 09:55:40;;;;;;;7.55;3.83;;;;;;;6.15;48.70;101049.88;4962764;28;20122;-66
2021/04/09 09:58:09;;;;;;;13.52;4.35;;;;;;;6.78;47.13;101057.31;4959836;28;20062;-66
2021/04/09 10:00:43;;;;;;;17.30;4.60;;;;;;;5.36;50.04;101060.72;4964620;28;20047;-66
2021/04/09 10:03:20;;;;;;;12.73;4.10;;;;;;;6.61;47.81;101054.22;4977926;28;20046;-67
2021/04/09 10:05:53;;;;;;;7.65;3.55;;;;;;;5.85;48.70;101059.94;4986938;28;20038;-66
2021/04/09 10:08:20;;;;;;;7.70;3.33;;;;;;;5.99;49.13;101057.94;4964881;28;20112;-66
2021/04/09 10:10:48;;;;;;;13.45;4.68;;;;;;;5.60;49.21;101057.75;4963655;28;20046;-65
2021/04/09 10:13:25;;;;;;;5.38;3.33;;;;;;;5.93;49.04;101065.84;4979501;28;20102;-65
2021/04/09 10:15:54;;;;;;;12.63;4.90;;;;;;;6.13;48.64;101051.63;4964013;28;20070;-64
2021/04/09 10:18:20;;;;;;;10.05;4.13;;;;;;;6.42;48.20;101071.91;4978487;28;20050;-68
2021/04/09 10:20:50;;;;;;;9.10;4.25;;;;;;;6.12;48.60;101070.69;4964038;28;20046;-66
2021/04/09 10:23:22;;;;;;;10.90;4.97;;;;;;;5.84;49.43;101058.22;4964344;28;20039;-66
2021/04/09 10:25:51;;;;;;;;;;;;;;;6.65;47.65;101068.84;4977364;28;20042;-66
2021/04/09 10:28:16;;;;;;;8.10;2.95;;;;;;;6.11;48.46;101061.22;4982620;28;19918;-65
2021/04/09 10:30:41;;;;;;;9.05;3.47;;;;;;;6.81;47.17;101069.38;4967508;28;20045;-65
2021/04/09 10:33:07;;;;;;;7.45;3.33;;;;;;;5.90;48.86;101076.25;4964767;28;20039;-66
2021/04/09 10:35:34;;;;;;;8.15;3.00;;;;;;;6.29;47.68;101064.34;4979023;28;20499;-65
2021/04/09 10:38:14;;;;;;;13.75;2.75;;;;;;;5.77;49.96;101072.16;4962300;28;20049;-65
2021/04/09 10:40:52;;;;;;;6.10;2.63;;;;;;;5.08;51.05;101071.50;4960496;28;20052;-65
2021/04/09 10:43:27;;;;;;;7.82;2.72;;;;;;;6.26;48.58;101066.09;4965007;28;20034;-66
2021/04/09 10:46:13;;;;;;;13.40;3.83;;;;;;;5.97;48.89;101077.88;4965786;28;20159;-66
2021/04/09 10:48:40;;;;;;;10.63;3.50;;;;;;;6.39;48.10;101070.19;4964373;28;20164;-65
2021/04/09 10:51:10;;;;;;;7.03;2.33;;;;;;;6.18;48.21;101075.78;4978110;28;20064;-67
2021/04/09 10:53:40;;;;;;;8.57;2.00;;;;;;;6.65;47.71;101074.03;4978691;28;20047;-66
2021/04/09 10:56:08;;;;;;;10.02;2.72;;;;;;;7.12;46.22;101069.56;4962274;28;20039;-66
2021/04/09 10:58:37;;;;;;;9.88;2.72;;;;;;;6.01;48.64;101068.28;4961714;28;20051;-66
2021/04/09 11:01:04;;;;;;;13.18;2.80;;;;;;;6.31;48.15;101074.72;4990584;28;20034;-66
2021/04/09 11:03:31;;;;;;;10.38;2.40;;;;;;;6.24;48.08;101073.09;4965156;28;20046;-65
2021/04/09 11:05:59;;;;;;;8.48;2.47;;;;;;;6.20;48.54;101081.81;4964434;28;20058;-66
2021/04/09 11:08:32;;;;;;;11.18;2.28;;;;;;;7.10;46.33;101081.75;4962997;28;20070;-66
2021/04/09 11:11:11;;;;;;;7.90;1.88;;;;;;;6.99;46.26;101078.53;4980217;28;20061;-65
2021/04/09 11:13:40;;;;;;;14.27;3.35;;;;;;;6.35;47.96;101084.16;4976265;28;20117;-65
2021/04/09 11:16:09;;;;;;;7.75;3.38;;;;;;;5.40;50.55;101073.63;4966247;28;20093;-66
2021/04/09 11:18:55;;;;;;;11.00;3.22;;;;;;;5.72;49.49;101079.16;4964541;28;20694;-67
2021/04/09 11:21:40;;;;;;;6.63;2.40;;;;;;;6.40;48.16;101071.94;4968006;28;20655;-65
2021/04/09 11:24:07;;;;;;;7.85;2.55;;;;;;;6.25;48.50;101079.97;4957490;28;20046;-66
2021/04/09 11:26:34;;;;;;;18.00;3.40;;;;;;;6.20;48.87;101076.63;4957586;28;20039;-65
2021/04/09 11:29:00;;;;;;;12.90;2.95;;;;;;;6.51;48.52;101087.31;4977865;28;20564;-66
2021/04/09 11:31:25;;;;;;;16.95;3.15;;;;;;;6.17;48.83;101076.66;4966553;28;20073;-66
2021/04/09 11:34:06;;;;;;;10.95;2.50;;;;;;;6.94;47.39;101075.19;4966375;28;20729;-64
2021/04/09 11:36:42;;;;;;;6.00;1.98;;;;;;;6.26;48.62;101084.28;4979028;28;20030;-66